sensor_id;sensor_type;location;lat;lon;timestamp;pressure;altitude;pressure_sealevel;temperature;humidity
64698;BME280;51124;53.394;-6.294;2023-09-18T00:00:49;99416.33;;;20.86;11.03
64698;BME280;51124;53.394;-6.294;2023-09-18T00:03:16;99417.13;;;20.44;10.96
64698;BME280;51124;53.394;-6.294;2023-09-18T00:05:43;99415.96;;;20.71;11.05
64698;BME280;51124;53.394;-6.294;2023-09-18T00:08:11;99414.98;;;20.36;10.99
64698;BME280;51124;53.394;-6.294;2023-09-18T00:10:38;99412.12;;;21.33;11.09
64698;BME280;51124;53.394;-6.294;2023-09-18T00:13:06;99413.88;;;20.07;11.22
64698;BME280;51124;53.394;-6.294;2023-09-18T00:15:33;99412.58;;;20.69;11.16
64698;BME280;51124;53.394;-6.294;2023-09-18T00:18:00;99411.76;;;20.82;11.12
64698;BME280;51124;53.394;-6.294;2023-09-18T00:20:27;99414.14;;;18.94;11.28
64698;BME280;51124;53.394;-6.294;2023-09-18T00:22:55;99413.41;;;21.05;11.20
64698;BME280;51124;53.394;-6.294;2023-09-18T00:25:23;99411.11;;;20.30;11.10
64698;BME280;51124;53.394;-6.294;2023-09-18T00:27:50;99408.90;;;20.15;11.05
64698;BME280;51124;53.394;-6.294;2023-09-18T00:30:17;99405.20;;;19.82;11.25
64698;BME280;51124;53.394;-6.294;2023-09-18T00:32:45;99400.46;;;19.56;11.11
64698;BME280;51124;53.394;-6.294;2023-09-18T00:35:12;99399.31;;;20.43;11.06
64698;BME280;51124;53.394;-6.294;2023-09-18T00:37:39;99396.30;;;20.68;10.98
64698;BME280;51124;53.394;-6.294;2023-09-18T00:40:07;99397.40;;;22.11;11.42
64698;BME280;51124;53.394;-6.294;2023-09-18T00:42:35;99395.88;;;21.87;11.77
64698;BME280;51124;53.394;-6.294;2023-09-18T00:45:02;99394.97;;;20.20;11.78
64698;BME280;51124;53.394;-6.294;2023-09-18T00:47:30;99396.85;;;23.42;11.96
64698;BME280;51124;53.394;-6.294;2023-09-18T00:49:57;99390.22;;;22.78;12.59
64698;BME280;51124;53.394;-6.294;2023-09-18T00:52:25;99391.09;;;23.62;12.84
64698;BME280;51124;53.394;-6.294;2023-09-18T00:54:54;99384.07;;;22.84;13.13
64698;BME280;51124;53.394;-6.294;2023-09-18T00:57:22;99377.74;;;22.33;13.19
64698;BME280;51124;53.394;-6.294;2023-09-18T00:59:49;99375.05;;;21.56;13.58
64698;BME280;51124;53.394;-6.294;2023-09-18T01:02:17;99372.73;;;22.24;13.46
64698;BME280;51124;53.394;-6.294;2023-09-18T01:04:45;99369.35;;;22.32;13.63
64698;BME280;51124;53.394;-6.294;2023-09-18T01:07:12;99366.41;;;21.95;13.60
64698;BME280;51124;53.394;-6.294;2023-09-18T01:09:40;99363.23;;;21.86;13.76
64698;BME280;51124;53.394;-6.294;2023-09-18T01:12:13;99361.43;;;20.53;13.74
64698;BME280;51124;53.394;-6.294;2023-09-18T01:14:40;99357.87;;;22.04;13.82
64698;BME280;51124;53.394;-6.294;2023-09-18T01:17:11;99353.29;;;20.98;13.68
64698;BME280;51124;53.394;-6.294;2023-09-18T01:19:40;99346.65;;;21.97;13.61
64698;BME280;51124;53.394;-6.294;2023-09-18T01:22:09;99341.37;;;21.13;13.73
64698;BME280;51124;53.394;-6.294;2023-09-18T01:24:37;99337.27;;;22.11;13.77
64698;BME280;51124;53.394;-6.294;2023-09-18T01:27:07;99331.74;;;21.40;13.77
64698;BME280;51124;53.394;-6.294;2023-09-18T01:29:35;99325.08;;;22.58;13.58
64698;BME280;51124;53.394;-6.294;2023-09-18T01:32:03;99324.32;;;21.92;13.79
64698;BME280;51124;53.394;-6.294;2023-09-18T01:34:35;99319.46;;;21.51;13.82
64698;BME280;51124;53.394;-6.294;2023-09-18T01:37:05;99314.83;;;21.86;13.94
64698;BME280;51124;53.394;-6.294;2023-09-18T01:39:34;99307.83;;;20.99;13.63
64698;BME280;51124;53.394;-6.294;2023-09-18T01:42:02;99303.80;;;20.59;13.53
64698;BME280;51124;53.394;-6.294;2023-09-18T01:44:30;99304.11;;;20.06;13.04
64698;BME280;51124;53.394;-6.294;2023-09-18T01:47:01;99300.77;;;19.75;12.79
64698;BME280;51124;53.394;-6.294;2023-09-18T01:49:32;99299.35;;;19.51;12.47
64698;BME280;51124;53.394;-6.294;2023-09-18T01:51:59;99292.85;;;19.75;12.27
64698;BME280;51124;53.394;-6.294;2023-09-18T01:54:27;99288.72;;;19.01;12.25
64698;BME280;51124;53.394;-6.294;2023-09-18T01:56:54;99286.68;;;19.86;11.96
64698;BME280;51124;53.394;-6.294;2023-09-18T01:59:22;99285.64;;;20.35;11.64
64698;BME280;51124;53.394;-6.294;2023-09-18T02:01:50;99286.13;;;20.18;11.59
64698;BME280;51124;53.394;-6.294;2023-09-18T02:04:18;99285.25;;;20.05;11.53
64698;BME280;51124;53.394;-6.294;2023-09-18T02:06:46;99284.26;;;20.52;11.43
64698;BME280;51124;53.394;-6.294;2023-09-18T02:09:13;99282.35;;;19.15;11.45
64698;BME280;51124;53.394;-6.294;2023-09-18T02:11:42;99280.81;;;19.95;11.49
64698;BME280;51124;53.394;-6.294;2023-09-18T02:14:10;99278.06;;;19.59;11.46
64698;BME280;51124;53.394;-6.294;2023-09-18T02:16:39;99279.23;;;20.43;11.38
64698;BME280;51124;53.394;-6.294;2023-09-18T02:19:07;99275.90;;;19.56;11.30
64698;BME280;51124;53.394;-6.294;2023-09-18T02:21:34;99264.51;;;20.44;11.25
64698;BME280;51124;53.394;-6.294;2023-09-18T02:24:02;99259.92;;;19.93;11.12
64698;BME280;51124;53.394;-6.294;2023-09-18T02:26:30;99262.45;;;20.20;11.23
64698;BME280;51124;53.394;-6.294;2023-09-18T02:28:59;99254.01;;;19.97;11.14
64698;BME280;51124;53.394;-6.294;2023-09-18T02:31:26;99253.86;;;20.43;11.04
64698;BME280;51124;53.394;-6.294;2023-09-18T02:33:54;99255.10;;;19.30;11.28
64698;BME280;51124;53.394;-6.294;2023-09-18T02:36:21;99247.94;;;20.15;11.29
64698;BME280;51124;53.394;-6.294;2023-09-18T02:38:48;99241.18;;;19.47;11.15
64698;BME280;51124;53.394;-6.294;2023-09-18T02:41:16;99240.36;;;18.99;11.21
64698;BME280;51124;53.394;-6.294;2023-09-18T02:43:43;99241.40;;;19.91;11.17
64698;BME280;51124;53.394;-6.294;2023-09-18T02:46:11;99244.60;;;19.39;11.29
64698;BME280;51124;53.394;-6.294;2023-09-18T02:48:38;99245.23;;;19.44;11.11
64698;BME280;51124;53.394;-6.294;2023-09-18T02:51:05;99243.96;;;19.80;11.07
64698;BME280;51124;53.394;-6.294;2023-09-18T02:53:32;99240.69;;;20.15;11.08
64698;BME280;51124;53.394;-6.294;2023-09-18T02:56:00;99237.13;;;20.31;11.10
64698;BME280;51124;53.394;-6.294;2023-09-18T02:58:28;99232.67;;;19.84;11.18
64698;BME280;51124;53.394;-6.294;2023-09-18T03:00:55;99230.48;;;20.01;11.22
64698;BME280;51124;53.394;-6.294;2023-09-18T03:03:23;99228.64;;;19.87;11.04
64698;BME280;51124;53.394;-6.294;2023-09-18T03:05:50;99230.14;;;20.01;10.93
64698;BME280;51124;53.394;-6.294;2023-09-18T03:08:17;99234.12;;;20.09;11.02
64698;BME280;51124;53.394;-6.294;2023-09-18T03:10:45;99233.00;;;21.23;11.09
64698;BME280;51124;53.394;-6.294;2023-09-18T03:13:14;99228.49;;;19.56;11.21
64698;BME280;51124;53.394;-6.294;2023-09-18T03:15:44;99229.41;;;19.77;11.10
64698;BME280;51124;53.394;-6.294;2023-09-18T03:18:11;99225.60;;;19.93;11.17
64698;BME280;51124;53.394;-6.294;2023-09-18T03:20:38;99220.98;;;19.66;11.19
64698;BME280;51124;53.394;-6.294;2023-09-18T03:23:06;99225.42;;;20.53;11.14
64698;BME280;51124;53.394;-6.294;2023-09-18T03:25:35;99223.46;;;20.17;11.18
64698;BME280;51124;53.394;-6.294;2023-09-18T03:28:02;99223.66;;;19.95;11.24
64698;BME280;51124;53.394;-6.294;2023-09-18T03:30:30;99224.27;;;19.70;11.12
64698;BME280;51124;53.394;-6.294;2023-09-18T03:32:57;99221.96;;;20.18;10.91
64698;BME280;51124;53.394;-6.294;2023-09-18T03:35:24;99226.99;;;20.28;11.02
64698;BME280;51124;53.394;-6.294;2023-09-18T03:37:53;99231.71;;;19.88;10.99
64698;BME280;51124;53.394;-6.294;2023-09-18T03:40:21;99236.06;;;22.57;11.45
64698;BME280;51124;53.394;-6.294;2023-09-18T03:42:49;99232.25;;;21.22;11.77
64698;BME280;51124;53.394;-6.294;2023-09-18T03:45:16;99235.27;;;20.01;11.83
64698;BME280;51124;53.394;-6.294;2023-09-18T03:47:44;99239.32;;;23.42;11.96
64698;BME280;51124;53.394;-6.294;2023-09-18T03:50:12;99244.47;;;23.11;12.75
64698;BME280;51124;53.394;-6.294;2023-09-18T03:52:40;99241.39;;;22.70;12.88
64698;BME280;51124;53.394;-6.294;2023-09-18T03:55:07;99239.38;;;21.93;13.33
64698;BME280;51124;53.394;-6.294;2023-09-18T03:57:35;99238.04;;;21.75;13.32
64698;BME280;51124;53.394;-6.294;2023-09-18T04:00:04;99237.52;;;22.27;13.48
64698;BME280;51124;53.394;-6.294;2023-09-18T04:02:31;99234.40;;;21.94;13.37
64698;BME280;51124;53.394;-6.294;2023-09-18T04:04:58;99233.00;;;21.56;13.63
64698;BME280;51124;53.394;-6.294;2023-09-18T04:07:26;99233.24;;;20.79;13.61
64698;BME280;51124;53.394;-6.294;2023-09-18T04:09:53;99235.69;;;22.30;13.59
64698;BME280;51124;53.394;-6.294;2023-09-18T04:12:21;99234.89;;;20.78;13.75
64698;BME280;51124;53.394;-6.294;2023-09-18T04:14:48;99233.52;;;21.63;13.73
64698;BME280;51124;53.394;-6.294;2023-09-18T04:17:15;99233.99;;;20.85;13.76
64698;BME280;51124;53.394;-6.294;2023-09-18T04:19:43;99232.05;;;21.83;13.60
64698;BME280;51124;53.394;-6.294;2023-09-18T04:22:11;99231.46;;;20.53;13.94
64698;BME280;51124;53.394;-6.294;2023-09-18T04:24:39;99226.94;;;21.13;13.75
64698;BME280;51124;53.394;-6.294;2023-09-18T04:27:06;99227.35;;;21.78;13.82
64698;BME280;51124;53.394;-6.294;2023-09-18T04:29:34;99227.36;;;21.93;13.76
64698;BME280;51124;53.394;-6.294;2023-09-18T04:32:01;99222.99;;;21.94;13.87
64698;BME280;51124;53.394;-6.294;2023-09-18T04:34:29;99225.41;;;21.59;13.76
64698;BME280;51124;53.394;-6.294;2023-09-18T04:36:56;99225.32;;;20.99;13.94
64698;BME280;51124;53.394;-6.294;2023-09-18T04:39:24;99225.82;;;20.59;13.68
64698;BME280;51124;53.394;-6.294;2023-09-18T04:41:51;99214.13;;;20.42;13.53
64698;BME280;51124;53.394;-6.294;2023-09-18T04:44:19;99217.38;;;19.81;13.17
64698;BME280;51124;53.394;-6.294;2023-09-18T04:46:46;99215.29;;;19.40;12.57
64698;BME280;51124;53.394;-6.294;2023-09-18T04:49:13;99210.06;;;19.62;12.38
64698;BME280;51124;53.394;-6.294;2023-09-18T04:51:40;99205.63;;;19.86;12.14
64698;BME280;51124;53.394;-6.294;2023-09-18T04:54:07;99201.37;;;19.04;12.02
64698;BME280;51124;53.394;-6.294;2023-09-18T04:56:35;99204.36;;;19.89;11.80
64698;BME280;51124;53.394;-6.294;2023-09-18T04:59:02;99205.49;;;19.60;11.77
64698;BME280;51124;53.394;-6.294;2023-09-18T05:01:29;99207.82;;;20.01;11.45
64698;BME280;51124;53.394;-6.294;2023-09-18T05:03:56;99202.07;;;19.18;11.47
64698;BME280;51124;53.394;-6.294;2023-09-18T05:06:23;99201.82;;;19.79;11.37
64698;BME280;51124;53.394;-6.294;2023-09-18T05:08:51;99201.49;;;20.14;11.32
64698;BME280;51124;53.394;-6.294;2023-09-18T05:11:18;99198.22;;;20.05;11.32
64698;BME280;51124;53.394;-6.294;2023-09-18T05:13:45;99208.29;;;19.25;11.37
64698;BME280;51124;53.394;-6.294;2023-09-18T05:16:12;99206.48;;;19.25;11.33
64698;BME280;51124;53.394;-6.294;2023-09-18T05:18:39;99211.78;;;19.56;11.18
64698;BME280;51124;53.394;-6.294;2023-09-18T05:21:07;99209.16;;;19.34;11.12
64698;BME280;51124;53.394;-6.294;2023-09-18T05:23:34;99210.49;;;19.96;11.09
64698;BME280;51124;53.394;-6.294;2023-09-18T05:26:01;99204.20;;;19.16;11.24
64698;BME280;51124;53.394;-6.294;2023-09-18T05:28:28;99199.19;;;19.50;11.11
64698;BME280;51124;53.394;-6.294;2023-09-18T05:30:55;99199.82;;;19.99;11.09
64698;BME280;51124;53.394;-6.294;2023-09-18T05:33:23;99195.23;;;20.16;11.02
64698;BME280;51124;53.394;-6.294;2023-09-18T05:35:50;99195.56;;;19.96;11.06
64698;BME280;51124;53.394;-6.294;2023-09-18T05:38:17;99196.19;;;20.25;11.02
64698;BME280;51124;53.394;-6.294;2023-09-18T05:40:44;99194.94;;;19.99;10.96
64698;BME280;51124;53.394;-6.294;2023-09-18T05:43:12;99194.37;;;20.18;11.03
64698;BME280;51124;53.394;-6.294;2023-09-18T05:45:39;99195.78;;;19.95;11.09
64698;BME280;51124;53.394;-6.294;2023-09-18T05:48:06;99193.69;;;19.77;11.10
64698;BME280;51124;53.394;-6.294;2023-09-18T05:50:34;99194.95;;;19.46;10.96
64698;BME280;51124;53.394;-6.294;2023-09-18T05:53:02;99197.21;;;19.69;11.00
64698;BME280;51124;53.394;-6.294;2023-09-18T05:55:30;99199.90;;;19.46;11.11
64698;BME280;51124;53.394;-6.294;2023-09-18T05:57:57;99200.01;;;19.84;10.97
64698;BME280;51124;53.394;-6.294;2023-09-18T06:00:25;99200.68;;;19.74;10.96
64698;BME280;51124;53.394;-6.294;2023-09-18T06:02:52;99202.41;;;20.53;11.05
64698;BME280;51124;53.394;-6.294;2023-09-18T06:05:20;99205.78;;;19.62;11.00
64698;BME280;51124;53.394;-6.294;2023-09-18T06:07:47;99211.01;;;19.24;10.98
64698;BME280;51124;53.394;-6.294;2023-09-18T06:10:15;99209.79;;;20.64;10.99
64698;BME280;51124;53.394;-6.294;2023-09-18T06:12:42;99211.33;;;19.85;11.05
64698;BME280;51124;53.394;-6.294;2023-09-18T06:15:11;99210.73;;;19.88;10.99
64698;BME280;51124;53.394;-6.294;2023-09-18T06:17:38;99218.59;;;20.27;10.93
64698;BME280;51124;53.394;-6.294;2023-09-18T06:20:07;99220.05;;;19.88;10.98
64698;BME280;51124;53.394;-6.294;2023-09-18T06:22:34;99227.68;;;19.89;11.11
64698;BME280;51124;53.394;-6.294;2023-09-18T06:25:01;99229.80;;;19.82;11.08
64698;BME280;51124;53.394;-6.294;2023-09-18T06:27:28;99229.93;;;19.28;11.12
64698;BME280;51124;53.394;-6.294;2023-09-18T06:29:56;99232.41;;;19.63;10.87
64698;BME280;51124;53.394;-6.294;2023-09-18T06:32:23;99236.06;;;20.04;10.79
64698;BME280;51124;53.394;-6.294;2023-09-18T06:34:50;99236.18;;;19.89;10.86
64698;BME280;51124;53.394;-6.294;2023-09-18T06:37:17;99235.22;;;21.16;10.83
64698;BME280;51124;53.394;-6.294;2023-09-18T06:39:45;99240.19;;;21.78;11.37
64698;BME280;51124;53.394;-6.294;2023-09-18T06:42:12;99243.23;;;20.35;11.82
64698;BME280;51124;53.394;-6.294;2023-09-18T06:44:40;99247.52;;;19.79;11.62
64698;BME280;51124;53.394;-6.294;2023-09-18T06:47:07;99252.50;;;22.89;12.03
64698;BME280;51124;53.394;-6.294;2023-09-18T06:49:35;99249.80;;;22.43;12.61
64698;BME280;51124;53.394;-6.294;2023-09-18T06:52:03;99251.52;;;22.08;13.24
64698;BME280;51124;53.394;-6.294;2023-09-18T06:54:30;99254.80;;;22.24;13.58
64698;BME280;51124;53.394;-6.294;2023-09-18T06:56:57;99250.56;;;22.15;13.82
64698;BME280;51124;53.394;-6.294;2023-09-18T06:59:25;99254.98;;;22.78;13.65
64698;BME280;51124;53.394;-6.294;2023-09-18T07:01:52;99265.29;;;22.35;13.35
64698;BME280;51124;53.394;-6.294;2023-09-18T07:04:19;99267.09;;;22.33;13.95
64698;BME280;51124;53.394;-6.294;2023-09-18T07:06:47;99271.20;;;22.42;13.75
64698;BME280;51124;53.394;-6.294;2023-09-18T07:09:14;99272.81;;;22.27;13.42
64698;BME280;51124;53.394;-6.294;2023-09-18T07:11:42;99271.09;;;22.28;13.33
64698;BME280;51124;53.394;-6.294;2023-09-18T07:14:09;99269.71;;;22.31;13.38
64698;BME280;51124;53.394;-6.294;2023-09-18T07:16:36;99269.11;;;21.76;13.34
64698;BME280;51124;53.394;-6.294;2023-09-18T07:19:04;99266.57;;;23.25;13.27
64698;BME280;51124;53.394;-6.294;2023-09-18T07:21:32;99267.30;;;22.15;13.23
64698;BME280;51124;53.394;-6.294;2023-09-18T07:23:59;99263.23;;;21.67;13.75
64698;BME280;51124;53.394;-6.294;2023-09-18T07:26:26;99268.50;;;20.21;14.38
64698;BME280;51124;53.394;-6.294;2023-09-18T07:28:54;99275.69;;;21.45;14.20
64698;BME280;51124;53.394;-6.294;2023-09-18T07:31:21;99275.51;;;20.86;14.12
64698;BME280;51124;53.394;-6.294;2023-09-18T07:33:48;99277.25;;;21.68;13.88
64698;BME280;51124;53.394;-6.294;2023-09-18T07:36:16;99277.43;;;21.93;13.93
64698;BME280;51124;53.394;-6.294;2023-09-18T07:38:43;99277.65;;;20.45;13.84
64698;BME280;51124;53.394;-6.294;2023-09-18T07:41:12;99287.09;;;20.06;13.53
64698;BME280;51124;53.394;-6.294;2023-09-18T07:43:39;99292.61;;;18.82;13.38
64698;BME280;51124;53.394;-6.294;2023-09-18T07:46:06;99291.68;;;19.38;12.79
64698;BME280;51124;53.394;-6.294;2023-09-18T07:48:34;99296.04;;;19.81;12.46
64698;BME280;51124;53.394;-6.294;2023-09-18T07:51:01;99300.86;;;19.73;12.25
64698;BME280;51124;53.394;-6.294;2023-09-18T07:53:28;99301.39;;;19.18;12.11
64698;BME280;51124;53.394;-6.294;2023-09-18T07:55:58;99304.24;;;18.94;12.05
64698;BME280;51124;53.394;-6.294;2023-09-18T07:58:25;99306.88;;;19.28;11.75
64698;BME280;51124;53.394;-6.294;2023-09-18T08:00:52;99306.91;;;19.46;11.66
64698;BME280;51124;53.394;-6.294;2023-09-18T08:03:20;99310.91;;;19.65;11.58
64698;BME280;51124;53.394;-6.294;2023-09-18T08:05:49;99311.12;;;20.69;11.47
64698;BME280;51124;53.394;-6.294;2023-09-18T08:08:16;99314.64;;;19.86;11.44
64698;BME280;51124;53.394;-6.294;2023-09-18T08:10:43;99319.98;;;19.55;11.46
64698;BME280;51124;53.394;-6.294;2023-09-18T08:13:10;99320.57;;;19.68;11.27
64698;BME280;51124;53.394;-6.294;2023-09-18T08:15:38;99327.95;;;19.92;11.23
64698;BME280;51124;53.394;-6.294;2023-09-18T08:18:05;99330.94;;;19.67;11.22
64698;BME280;51124;53.394;-6.294;2023-09-18T08:20:33;99334.50;;;19.92;11.14
64698;BME280;51124;53.394;-6.294;2023-09-18T08:23:00;99344.81;;;19.29;11.22
64698;BME280;51124;53.394;-6.294;2023-09-18T08:25:27;99340.18;;;20.08;11.24
64698;BME280;51124;53.394;-6.294;2023-09-18T08:27:54;99342.42;;;19.75;11.06
64698;BME280;51124;53.394;-6.294;2023-09-18T08:30:21;99345.87;;;20.21;11.03
64698;BME280;51124;53.394;-6.294;2023-09-18T08:32:49;99350.94;;;20.02;11.11
64698;BME280;51124;53.394;-6.294;2023-09-18T08:35:16;99353.37;;;19.72;11.16
64698;BME280;51124;53.394;-6.294;2023-09-18T08:37:43;99356.39;;;20.78;11.21
64698;BME280;51124;53.394;-6.294;2023-09-18T08:40:12;99358.51;;;20.19;11.12
64698;BME280;51124;53.394;-6.294;2023-09-18T08:42:44;99359.47;;;20.31;11.37
64698;BME280;51124;53.394;-6.294;2023-09-18T08:45:14;99354.83;;;20.14;11.31
64698;BME280;51124;53.394;-6.294;2023-09-18T08:47:42;99353.83;;;20.07;11.27
64698;BME280;51124;53.394;-6.294;2023-09-18T08:50:11;99351.52;;;20.54;11.02
64698;BME280;51124;53.394;-6.294;2023-09-18T08:52:39;99352.96;;;19.61;11.30
64698;BME280;51124;53.394;-6.294;2023-09-18T08:55:08;99353.42;;;19.98;11.04
64698;BME280;51124;53.394;-6.294;2023-09-18T08:57:36;99350.97;;;19.98;10.93
64698;BME280;51124;53.394;-6.294;2023-09-18T09:00:06;99351.63;;;20.36;10.93
64698;BME280;51124;53.394;-6.294;2023-09-18T09:02:33;99350.57;;;20.94;10.89
64698;BME280;51124;53.394;-6.294;2023-09-18T09:05:00;99349.55;;;19.55;11.09
64698;BME280;51124;53.394;-6.294;2023-09-18T09:07:28;99346.27;;;20.22;10.80
64698;BME280;51124;53.394;-6.294;2023-09-18T09:09:55;99343.49;;;20.97;11.04
64698;BME280;51124;53.394;-6.294;2023-09-18T09:12:46;99344.63;;;20.33;11.04
64698;BME280;51124;53.394;-6.294;2023-09-18T09:15:04;99341.65;;;19.66;11.35
64698;BME280;51124;53.394;-6.294;2023-09-18T09:17:22;99338.29;;;20.30;11.09
64698;BME280;51124;53.394;-6.294;2023-09-18T09:19:49;99336.81;;;19.49;11.09
64698;BME280;51124;53.394;-6.294;2023-09-18T09:22:22;99329.11;;;21.73;10.42
64698;BME280;51124;53.394;-6.294;2023-09-18T09:24:49;99334.40;;;20.76;10.43
64698;BME280;51124;53.394;-6.294;2023-09-18T09:27:17;99335.93;;;20.00;10.35
64698;BME280;51124;53.394;-6.294;2023-09-18T09:29:44;99334.64;;;20.13;9.84
64698;BME280;51124;53.394;-6.294;2023-09-18T09:32:15;99334.56;;;19.62;9.72
64698;BME280;51124;53.394;-6.294;2023-09-18T09:34:43;99325.56;;;20.47;9.56
64698;BME280;51124;53.394;-6.294;2023-09-18T09:37:11;99325.17;;;19.08;9.68
64698;BME280;51124;53.394;-6.294;2023-09-18T09:39:48;99325.05;;;22.04;9.63
64698;BME280;51124;53.394;-6.294;2023-09-18T09:42:06;99335.49;;;22.48;9.86
64698;BME280;51124;53.394;-6.294;2023-09-18T09:44:33;99333.53;;;19.86;10.11
64698;BME280;51124;53.394;-6.294;2023-09-18T09:47:01;99330.46;;;23.51;9.83
64698;BME280;51124;53.394;-6.294;2023-09-18T09:49:47;99327.82;;;23.46;10.34
64698;BME280;51124;53.394;-6.294;2023-09-18T09:52:05;99332.07;;;22.42;10.49
64698;BME280;51124;53.394;-6.294;2023-09-18T09:54:35;99334.34;;;22.84;10.75
64698;BME280;51124;53.394;-6.294;2023-09-18T09:57:04;99329.95;;;21.22;11.11
64698;BME280;51124;53.394;-6.294;2023-09-18T09:59:32;99329.94;;;22.05;12.05
64698;BME280;51124;53.394;-6.294;2023-09-18T10:02:00;99332.75;;;21.27;12.57
64698;BME280;51124;53.394;-6.294;2023-09-18T10:04:29;99329.14;;;22.58;12.89
64698;BME280;51124;53.394;-6.294;2023-09-18T10:07:07;99333.09;;;21.52;12.77
64698;BME280;51124;53.394;-6.294;2023-09-18T10:09:28;99338.11;;;22.49;12.98
64698;BME280;51124;53.394;-6.294;2023-09-18T10:11:57;99337.41;;;20.88;13.45
64698;BME280;51124;53.394;-6.294;2023-09-18T10:14:31;99339.97;;;22.60;13.08
64698;BME280;51124;53.394;-6.294;2023-09-18T10:16:59;99346.74;;;21.68;13.09
64698;BME280;51124;53.394;-6.294;2023-09-18T10:19:37;99340.07;;;22.81;12.92
64698;BME280;51124;53.394;-6.294;2023-09-18T10:22:04;99352.58;;;22.60;12.94
64698;BME280;51124;53.394;-6.294;2023-09-18T10:24:26;99353.35;;;22.95;12.84
64698;BME280;51124;53.394;-6.294;2023-09-18T10:26:58;99350.39;;;22.75;12.91
64698;BME280;51124;53.394;-6.294;2023-09-18T10:29:26;99355.98;;;22.41;12.98
64698;BME280;51124;53.394;-6.294;2023-09-18T10:31:55;99350.61;;;23.21;13.01
64698;BME280;51124;53.394;-6.294;2023-09-18T10:34:24;99362.22;;;22.56;13.07
64698;BME280;51124;53.394;-6.294;2023-09-18T10:36:53;99362.71;;;22.73;13.11
64698;BME280;51124;53.394;-6.294;2023-09-18T10:39:23;99355.31;;;21.76;12.83
64698;BME280;51124;53.394;-6.294;2023-09-18T10:41:54;99357.62;;;22.11;12.59
64698;BME280;51124;53.394;-6.294;2023-09-18T10:44:21;99362.50;;;20.88;12.39
64698;BME280;51124;53.394;-6.294;2023-09-18T10:46:50;99364.59;;;21.44;11.91
64698;BME280;51124;53.394;-6.294;2023-09-18T10:49:18;99367.08;;;20.82;11.65
64698;BME280;51124;53.394;-6.294;2023-09-18T10:51:48;99363.70;;;22.64;11.14
64698;BME280;51124;53.394;-6.294;2023-09-18T10:54:21;99357.44;;;21.47;11.18
64698;BME280;51124;53.394;-6.294;2023-09-18T10:56:50;99357.25;;;21.29;10.69
64698;BME280;51124;53.394;-6.294;2023-09-18T10:59:17;99353.12;;;21.06;10.46
64698;BME280;51124;53.394;-6.294;2023-09-18T11:01:45;99356.39;;;20.81;10.77
64698;BME280;51124;53.394;-6.294;2023-09-18T11:04:13;99356.59;;;21.48;10.48
64698;BME280;51124;53.394;-6.294;2023-09-18T11:07:21;99351.12;;;22.32;10.10
64698;BME280;51124;53.394;-6.294;2023-09-18T11:09:10;99345.62;;;21.30;10.22
64698;BME280;51124;53.394;-6.294;2023-09-18T11:11:37;99349.83;;;21.44;10.40
64698;BME280;51124;53.394;-6.294;2023-09-18T11:14:04;99348.61;;;21.82;10.38
64698;BME280;51124;53.394;-6.294;2023-09-18T11:16:38;99348.99;;;20.78;10.57
64698;BME280;51124;53.394;-6.294;2023-09-18T11:19:11;99347.32;;;21.57;10.16
64698;BME280;51124;53.394;-6.294;2023-09-18T11:21:39;99344.14;;;21.63;9.84
64698;BME280;51124;53.394;-6.294;2023-09-18T11:24:08;99343.49;;;21.56;9.76
64698;BME280;51124;53.394;-6.294;2023-09-18T11:26:37;99350.86;;;21.31;10.04
64698;BME280;51124;53.394;-6.294;2023-09-18T11:29:07;99353.43;;;21.43;10.12
64698;BME280;51124;53.394;-6.294;2023-09-18T11:31:52;99356.09;;;20.73;10.24
64698;BME280;51124;53.394;-6.294;2023-09-18T11:34:13;99355.30;;;21.17;10.23
64698;BME280;51124;53.394;-6.294;2023-09-18T11:36:42;99360.61;;;21.71;10.13
64698;BME280;51124;53.394;-6.294;2023-09-18T11:39:09;99363.03;;;20.64;10.21
64698;BME280;51124;53.394;-6.294;2023-09-18T11:41:38;99359.93;;;20.72;10.49
64698;BME280;51124;53.394;-6.294;2023-09-18T11:44:41;99359.71;;;20.78;10.23
64698;BME280;51124;53.394;-6.294;2023-09-18T11:46:37;99360.94;;;21.46;10.08
64698;BME280;51124;53.394;-6.294;2023-09-18T11:49:05;99357.91;;;21.60;10.00
64698;BME280;51124;53.394;-6.294;2023-09-18T11:51:34;99351.94;;;21.61;9.97
64698;BME280;51124;53.394;-6.294;2023-09-18T11:54:02;99346.91;;;21.84;10.13
64698;BME280;51124;53.394;-6.294;2023-09-18T11:56:30;99350.71;;;21.60;9.99
64698;BME280;51124;53.394;-6.294;2023-09-18T11:58:58;99351.29;;;21.64;9.90
64698;BME280;51124;53.394;-6.294;2023-09-18T12:01:25;99353.53;;;22.26;9.91
64698;BME280;51124;53.394;-6.294;2023-09-18T12:04:00;99356.70;;;22.38;9.90
64698;BME280;51124;53.394;-6.294;2023-09-18T12:06:27;99358.03;;;22.72;10.16
64698;BME280;51124;53.394;-6.294;2023-09-18T12:08:55;99358.04;;;21.62;10.03
64698;BME280;51124;53.394;-6.294;2023-09-18T12:11:23;99358.77;;;21.57;10.23
64698;BME280;51124;53.394;-6.294;2023-09-18T12:13:52;99364.78;;;21.52;10.40
64698;BME280;51124;53.394;-6.294;2023-09-18T12:16:20;99362.67;;;22.33;10.32
64698;BME280;51124;53.394;-6.294;2023-09-18T12:18:48;99358.69;;;22.33;10.32
64698;BME280;51124;53.394;-6.294;2023-09-18T12:21:16;99372.05;;;21.36;10.37
64698;BME280;51124;53.394;-6.294;2023-09-18T12:23:44;99362.18;;;22.10;10.27
64698;BME280;51124;53.394;-6.294;2023-09-18T12:26:13;99360.54;;;22.30;10.31
64698;BME280;51124;53.394;-6.294;2023-09-18T12:28:42;99359.23;;;21.71;10.18
64698;BME280;51124;53.394;-6.294;2023-09-18T12:31:12;99356.21;;;21.83;10.03
64698;BME280;51124;53.394;-6.294;2023-09-18T12:33:40;99361.00;;;21.41;9.90
64698;BME280;51124;53.394;-6.294;2023-09-18T12:36:09;99355.88;;;21.52;9.76
64698;BME280;51124;53.394;-6.294;2023-09-18T12:38:37;99362.41;;;21.06;9.95
64698;BME280;51124;53.394;-6.294;2023-09-18T12:41:05;99367.28;;;23.93;10.09
64698;BME280;51124;53.394;-6.294;2023-09-18T12:43:34;99361.81;;;23.19;10.70
64698;BME280;51124;53.394;-6.294;2023-09-18T12:46:03;99341.79;;;21.85;10.85
64698;BME280;51124;53.394;-6.294;2023-09-18T12:48:31;99347.75;;;23.05;10.81
64698;BME280;51124;53.394;-6.294;2023-09-18T12:51:04;99335.67;;;24.12;11.44
64698;BME280;51124;53.394;-6.294;2023-09-18T12:53:32;99335.64;;;22.83;11.84